Palm Bay, Florida
Current Conditions -  °F | °C
As of 2:53 AM on Monday 22 Dec 2014 (Local Time) from KMLB Reporting Station
Overcast Overcast  
Wind Chill: 67°   Ceiling: 11000
Heat Index: 67°   Visibility: 10mi
Dew Point: 64°   Wind: 0mph
Humidity: 90%   Direction: NA
Pressure: 30.05"   Gusts: NA
Location:  28°N, 80.67°W
Report Text: KMLB 220753Z AUTO 00000KT 10SM SCT085 OVC110 19/18 A3005 RMK AO2 RAE35 SLP173 P0008 T01940178
Loading
Personal Weather Stations






























Interactive Weather Map New forecast layout! Learn more

10-Day Weather Forecast

Advertisements
Track Severe Weather on mobile